Terminal Aerodrome Forecast
Issued by NWS Buffalo, NY

Home | Current Version | Previous Version | Text Only | Print | Product List | Glossary On
Versions: 1 2 3 4 5 6 7 8 9 10 11 12 13 14 15 16 17 18 19 20 21 22 23 24 25 26
248
FTUS41 KBUF 300521
TAFBUF
TAF
KBUF 300521Z 3006/3106 VRB04KT 6SM BR SKC
     FM301300 19005KT P6SM FEW250
     FM301500 23006KT P6SM FEW250
     FM302200 24008KT P6SM SCT120
     FM310300 20006KT P6SM FEW250=

USA.gov is the U.S. government's official web portal to all federal, state and local government web resources and services.